Time;durP1;ratioP1;P1;durP2;ratioP2;P2;SDS_P1;SDS_P2;PMS_P1;PMS_P2;Temp;Humidity;BMP_temperature;BMP_pressure;BME280_temperature;BME280_humidity;BME280_pressure;Samples;Min_cycle;Max_cycle;Signal;HPM_P1;HPM_P2
2022/01/30 00:00:56;;;;;;;0.40;0.10;;;6.60;99.90;;;;;;5134495;28;20465;-61
2022/01/30 00:03:24;;;;;;;0.40;0.20;;;6.60;99.90;;;;;;5135345;27;20426;-61
2022/01/30 00:05:51;;;;;;;0.35;0.20;;;6.60;99.90;;;;;;5136416;27;20434;-62
2022/01/30 00:08:18;;;;;;;0.30;0.10;;;6.60;99.90;;;;;;5134770;27;20930;-62
2022/01/30 00:10:51;;;;;;;0.30;0.17;;;6.60;99.90;;;;;;5135496;27;20734;-62
2022/01/30 00:13:19;;;;;;;1.00;0.20;;;6.70;99.90;;;;;;5135853;27;20807;-61
2022/01/30 00:15:49;;;;;;;0.30;0.20;;;6.70;99.90;;;;;;5136840;27;20509;-62
2022/01/30 00:18:43;;;;;;;0.30;0.20;;;6.70;99.90;;;;;;5137784;27;20421;-62
2022/01/30 00:21:16;;;;;;;0.40;0.20;;;6.70;99.90;;;;;;5139120;27;20399;-62
2022/01/30 00:23:48;;;;;;;0.90;0.20;;;6.80;99.90;;;;;;5138601;27;20477;-62
2022/01/30 00:26:17;;;;;;;0.40;0.20;;;6.80;99.90;;;;;;5138901;27;20421;-62
2022/01/30 00:28:44;;;;;;;0.40;0.20;;;6.70;99.90;;;;;;5138694;27;20475;-62
2022/01/30 00:31:13;;;;;;;0.40;0.20;;;6.70;99.90;;;;;;5139292;27;20491;-62
2022/01/30 00:33:40;;;;;;;0.40;0.20;;;6.70;99.90;;;;;;5139249;27;20457;-62
2022/01/30 00:36:07;;;;;;;0.40;0.20;;;6.70;99.90;;;;;;5138502;27;20873;-61
2022/01/30 00:38:35;;;;;;;0.38;0.20;;;6.70;99.90;;;;;;5138915;27;20461;-62
2022/01/30 00:41:05;;;;;;;0.30;0.20;;;6.70;99.90;;;;;;5138743;27;20429;-61
2022/01/30 00:43:32;;;;;;;0.40;0.20;;;6.70;99.90;;;;;;5138652;27;20482;-62
2022/01/30 00:45:59;;;;;;;0.40;0.20;;;6.70;99.90;;;;;;5138440;27;20778;-62
2022/01/30 00:48:26;;;;;;;0.50;0.20;;;6.70;99.90;;;;;;5137813;27;20502;-62
2022/01/30 00:50:53;;;;;;;0.50;0.20;;;6.60;99.90;;;;;;5137862;27;20552;-61
2022/01/30 00:53:20;;;;;;;0.40;0.10;;;6.60;99.90;;;;;;5137191;27;20461;-61
2022/01/30 00:55:49;;;;;;;0.40;0.20;;;6.60;99.90;;;;;;5137440;27;20457;-62
2022/01/30 00:58:16;;;;;;;0.40;0.20;;;6.70;99.90;;;;;;5137465;27;20465;-62
2022/01/30 01:00:43;;;;;;;0.40;0.20;;;6.80;99.90;;;;;;5136972;27;20505;-62
2022/01/30 01:03:10;;;;;;;0.50;0.20;;;6.80;99.90;;;;;;5137418;27;20414;-61
2022/01/30 01:05:38;;;;;;;0.40;0.20;;;6.90;99.90;;;;;;5137916;27;20450;-62
2022/01/30 01:08:12;;;;;;;0.50;0.20;;;6.90;99.90;;;;;;5137466;27;20821;-62
2022/01/30 01:10:44;;;;;;;0.40;0.20;;;6.90;99.90;;;;;;5136530;27;20414;-61
2022/01/30 01:13:26;;;;;;;0.60;0.20;;;7.00;99.90;;;;;;5137078;27;20497;-62
2022/01/30 01:24:14;;;;;;;0.40;0.20;;;7.20;99.90;;;;;;5133329;27;20437;-59
2022/01/30 01:26:41;;;;;;;0.30;0.17;;;7.20;99.90;;;;;;5133613;27;20435;-60
2022/01/30 01:29:09;;;;;;;0.40;0.20;;;7.20;99.90;;;;;;5132944;27;20937;-60
2022/01/30 01:31:36;;;;;;;0.40;0.20;;;7.20;99.90;;;;;;5133117;27;20445;-60
2022/01/30 01:34:17;;;;;;;0.40;0.20;;;7.20;99.90;;;;;;5133762;27;20895;-61
2022/01/30 01:36:44;;;;;;;0.50;0.20;;;7.10;99.90;;;;;;5135334;27;20419;-60
2022/01/30 01:39:11;;;;;;;0.47;0.20;;;7.10;99.90;;;;;;5134632;27;20430;-60
2022/01/30 01:41:38;;;;;;;0.40;0.20;;;7.10;99.90;;;;;;5135555;27;20431;-60
2022/01/30 01:44:16;;;;;;;0.40;0.20;;;7.10;99.90;;;;;;5136593;27;20499;-61
2022/01/30 01:46:44;;;;;;;0.40;0.20;;;7.00;99.90;;;;;;5136717;27;20418;-60
2022/01/30 01:49:18;;;;;;;0.47;0.20;;;7.10;99.90;;;;;;5137954;27;20430;-61
2022/01/30 01:51:49;;;;;;;0.40;0.20;;;7.10;99.90;;;;;;5137697;27;20470;-60
2022/01/30 01:54:16;;;;;;;0.52;0.30;;;7.10;99.90;;;;;;5137702;27;20410;-60
2022/01/30 01:56:43;;;;;;;0.43;0.20;;;7.00;99.90;;;;;;5136273;27;20438;-61
2022/01/30 01:59:10;;;;;;;0.40;0.20;;;7.10;99.90;;;;;;5135689;27;20426;-60
2022/01/30 02:01:39;;;;;;;0.50;0.20;;;7.10;99.90;;;;;;5137592;27;20471;-60
2022/01/30 02:04:06;;;;;;;1.10;0.20;;;7.10;99.90;;;;;;5137597;27;20462;-60
2022/01/30 02:06:32;;;;;;;0.40;0.20;;;7.10;99.90;;;;;;5137124;27;20882;-60
2022/01/30 02:09:07;;;;;;;0.30;0.10;;;7.10;99.90;;;;;;5137425;27;20427;-59
2022/01/30 02:11:38;;;;;;;0.47;0.20;;;7.10;99.90;;;;;;5136874;27;20845;-60
2022/01/30 02:28:07;;;;;;;0.40;0.20;;;7.30;99.90;;;;;;5135826;27;20399;-60
2022/01/30 02:30:37;;;;;;;0.50;0.20;;;7.30;99.90;;;;;;5136799;27;20433;-60
2022/01/30 02:33:04;;;;;;;0.60;0.30;;;7.20;99.90;;;;;;5137200;27;20407;-61
2022/01/30 02:35:31;;;;;;;0.30;0.13;;;7.30;99.90;;;;;;5136345;27;20786;-60
2022/01/30 02:38:01;;;;;;;0.63;0.20;;;7.30;99.90;;;;;;5136108;27;20410;-60
2022/01/30 02:40:30;;;;;;;0.30;0.10;;;7.40;99.90;;;;;;5136944;27;20430;-60
2022/01/30 02:42:57;;;;;;;0.40;0.20;;;7.40;99.90;;;;;;5136964;27;20418;-60
2022/01/30 02:45:27;;;;;;;0.40;0.20;;;7.30;99.90;;;;;;5136618;27;20422;-60
2022/01/30 02:47:59;;;;;;;0.40;0.20;;;7.20;99.90;;;;;;5135937;27;20473;-60
2022/01/30 02:50:39;;;;;;;0.40;0.20;;;7.20;99.90;;;;;;5136529;27;20973;-60
2022/01/30 02:53:10;;;;;;;0.60;0.20;;;7.30;99.90;;;;;;5136274;27;20430;-60
2022/01/30 02:55:37;;;;;;;0.40;0.20;;;7.40;99.90;;;;;;5135970;27;20419;-60
2022/01/30 02:58:04;;;;;;;0.50;0.30;;;7.50;99.90;;;;;;5136545;27;20730;-60
2022/01/30 03:00:31;;;;;;;0.40;0.20;;;7.70;99.90;;;;;;5135794;27;20465;-61
2022/01/30 03:02:58;;;;;;;0.40;0.20;;;7.80;99.90;;;;;;5135963;27;20450;-60
2022/01/30 03:05:25;;;;;;;0.40;0.20;;;7.80;99.90;;;;;;5135298;27;20926;-60
2022/01/30 03:07:53;;;;;;;0.90;0.30;;;7.80;99.90;;;;;;5134303;27;20462;-60
2022/01/30 03:10:21;;;;;;;0.70;0.30;;;7.80;99.90;;;;;;5134928;27;20425;-60
2022/01/30 03:12:48;;;;;;;0.50;0.30;;;7.90;99.90;;;;;;5134438;27;20473;-60
2022/01/30 03:15:15;;;;;;;0.50;0.30;;;7.90;99.90;;;;;;5135117;27;20774;-60
2022/01/30 03:17:42;;;;;;;0.57;0.20;;;7.90;99.90;;;;;;5135124;27;20450;-60
2022/01/30 03:20:10;;;;;;;0.88;0.20;;;7.90;99.90;;;;;;5135722;27;20470;-60
2022/01/30 03:22:38;;;;;;;0.63;0.30;;;7.80;99.90;;;;;;5136043;27;20415;-59
2022/01/30 03:25:06;;;;;;;1.10;0.20;;;7.80;99.90;;;;;;5136356;27;20414;-59
2022/01/30 03:27:34;;;;;;;1.50;0.30;;;7.80;99.90;;;;;;5135518;27;20822;-60
2022/01/30 03:30:06;;;;;;;0.52;0.20;;;7.80;99.90;;;;;;5135361;27;20422;-60
2022/01/30 03:32:33;;;;;;;1.75;0.20;;;7.80;99.90;;;;;;5135833;28;20848;-60
2022/01/30 03:35:00;;;;;;;0.50;0.20;;;7.80;99.90;;;;;;5135891;28;20467;-60
2022/01/30 03:37:27;;;;;;;0.40;0.20;;;7.80;99.90;;;;;;5136561;27;20465;-60
2022/01/30 03:39:54;;;;;;;0.60;0.20;;;7.70;99.90;;;;;;5140226;27;20469;-60
2022/01/30 03:42:21;;;;;;;0.45;0.20;;;7.60;99.90;;;;;;5140476;27;20450;-61
2022/01/30 03:44:50;;;;;;;0.50;0.20;;;7.60;99.90;;;;;;5139687;27;20774;-60
2022/01/30 03:47:17;;;;;;;0.40;0.20;;;7.60;99.90;;;;;;5139691;27;20718;-60
2022/01/30 03:49:43;;;;;;;0.40;0.20;;;7.60;99.90;;;;;;5139918;27;20458;-61
2022/01/30 03:52:10;;;;;;;0.95;0.20;;;7.70;99.90;;;;;;5138732;27;20651;-61
2022/01/30 03:54:37;;;;;;;0.43;0.20;;;7.70;99.90;;;;;;5139515;27;20782;-61
2022/01/30 03:57:06;;;;;;;0.40;0.20;;;7.70;99.90;;;;;;5138183;27;20453;-60
2022/01/30 03:59:33;;;;;;;0.50;0.20;;;7.70;99.90;;;;;;5137649;27;20429;-61
2022/01/30 04:02:01;;;;;;;1.30;0.20;;;7.80;99.90;;;;;;5136050;27;20521;-61
2022/01/30 04:04:29;;;;;;;0.80;0.20;;;7.80;99.90;;;;;;5135311;27;20462;-61
2022/01/30 04:06:58;;;;;;;0.90;0.30;;;7.90;99.90;;;;;;5133919;27;20645;-61
2022/01/30 04:09:25;;;;;;;0.50;0.30;;;7.90;99.90;;;;;;5135187;27;20555;-61
2022/01/30 04:11:53;;;;;;;0.70;0.30;;;7.80;99.90;;;;;;5135087;27;20446;-61
2022/01/30 04:14:20;;;;;;;0.80;0.30;;;7.80;99.90;;;;;;5136065;27;20450;-61
2022/01/30 04:16:48;;;;;;;0.50;0.30;;;7.80;99.90;;;;;;5136217;27;20461;-62
2022/01/30 04:19:16;;;;;;;1.25;0.30;;;7.70;99.90;;;;;;5135881;27;20497;-61
2022/01/30 04:21:43;;;;;;;1.00;0.40;;;7.80;99.90;;;;;;5138007;27;20462;-61
2022/01/30 04:24:10;;;;;;;1.95;0.30;;;7.90;99.90;;;;;;5138118;27;20452;-61
2022/01/30 04:26:39;;;;;;;0.82;0.40;;;7.80;99.90;;;;;;5138757;27;20431;-61
2022/01/30 04:29:06;;;;;;;1.00;0.40;;;7.80;99.90;;;;;;5138310;27;20431;-61
2022/01/30 04:31:34;;;;;;;0.60;0.40;;;7.80;99.90;;;;;;5138837;27;20430;-61
2022/01/30 04:34:01;;;;;;;1.30;0.40;;;7.80;99.90;;;;;;5138969;27;20845;-61
2022/01/30 04:36:39;;;;;;;1.20;0.40;;;7.80;99.90;;;;;;5138720;27;20549;-62
2022/01/30 04:39:14;;;;;;;1.40;0.40;;;7.70;99.90;;;;;;5138395;27;20486;-60
2022/01/30 04:53:17;;;;;;;1.80;0.50;;;7.70;99.90;;;;;;5159427;27;20888;-61
2022/01/30 04:58:33;;;;;;;1.60;0.50;;;7.60;99.90;;;;;;5159241;27;20397;-61
2022/01/30 05:01:12;;;;;;;1.10;0.60;;;7.60;99.90;;;;;;5158780;27;20429;-62
2022/01/30 05:03:53;;;;;;;1.00;0.40;;;7.60;99.90;;;;;;5158921;27;20417;-61
2022/01/30 05:06:31;;;;;;;2.00;0.50;;;7.60;99.90;;;;;;5158771;27;20732;-61
2022/01/30 05:08:59;;;;;;;1.00;0.50;;;7.50;99.90;;;;;;5158635;27;20819;-61
2022/01/30 05:11:26;;;;;;;1.90;0.50;;;7.50;99.90;;;;;;5158844;27;20456;-61
2022/01/30 05:13:54;;;;;;;1.80;0.50;;;7.50;99.90;;;;;;5158243;27;20536;-61
2022/01/30 05:16:23;;;;;;;2.42;0.50;;;7.50;99.90;;;;;;5158676;27;20866;-61
2022/01/30 05:18:50;;;;;;;1.20;0.50;;;7.50;99.90;;;;;;5158633;27;20417;-61
2022/01/30 05:21:19;;;;;;;1.75;0.60;;;7.40;99.90;;;;;;5157773;27;20930;-62
2022/01/30 05:23:47;;;;;;;1.90;0.60;;;7.40;99.90;;;;;;5158058;27;20417;-62
2022/01/30 05:26:16;;;;;;;1.90;0.50;;;7.30;99.90;;;;;;5157088;27;20477;-61
2022/01/30 05:28:44;;;;;;;0.90;0.50;;;7.40;99.90;;;;;;5157019;27;20541;-62
2022/01/30 05:31:11;;;;;;;2.10;0.60;;;7.40;99.90;;;;;;5157406;27;20457;-61
2022/01/30 05:33:38;;;;;;;2.10;0.60;;;7.40;99.90;;;;;;5157248;27;20898;-62
2022/01/30 05:36:08;;;;;;;1.40;0.50;;;7.30;99.90;;;;;;5157298;27;20457;-62
2022/01/30 05:38:35;;;;;;;2.13;0.50;;;7.30;99.90;;;;;;5157497;27;20769;-62
2022/01/30 05:41:03;;;;;;;3.60;0.60;;;7.30;99.90;;;;;;5157388;27;20947;-62
2022/01/30 05:43:33;;;;;;;5.60;0.60;;;7.30;99.90;;;;;;5158297;27;20412;-61
2022/01/30 05:46:10;;;;;;;2.90;0.60;;;7.20;99.90;;;;;;5158328;27;20473;-61
2022/01/30 05:48:38;;;;;;;1.58;0.57;;;7.30;99.90;;;;;;5158565;27;20408;-61
2022/01/30 05:51:05;;;;;;;1.37;0.60;;;7.30;99.90;;;;;;5158032;27;20477;-62
2022/01/30 05:53:32;;;;;;;1.80;0.50;;;7.40;99.90;;;;;;5158236;27;20512;-62
2022/01/30 05:55:59;;;;;;;2.40;0.60;;;7.40;99.90;;;;;;5158521;27;20863;-62
2022/01/30 05:58:26;;;;;;;2.70;0.50;;;7.40;99.90;;;;;;5157969;27;20441;-63
2022/01/30 06:00:54;;;;;;;0.95;0.57;;;7.50;99.90;;;;;;5157193;27;20464;-62
2022/01/30 06:03:22;;;;;;;1.23;0.50;;;7.40;99.90;;;;;;5157945;27;20793;-62
2022/01/30 06:05:49;;;;;;;1.90;0.50;;;7.40;99.90;;;;;;5157765;27;20425;-62
2022/01/30 06:08:38;;;;;;;1.20;0.50;;;7.40;99.90;;;;;;5157987;27;20419;-62
2022/01/30 06:11:03;;;;;;;4.20;0.63;;;7.40;99.90;;;;;;5158002;27;20408;-62
2022/01/30 06:13:30;;;;;;;1.90;0.60;;;7.40;99.90;;;;;;5157530;27;20445;-60
2022/01/30 06:15:59;;;;;;;2.90;0.60;;;7.40;99.90;;;;;;5156660;27;20795;-61
2022/01/30 06:18:26;;;;;;;2.33;0.60;;;7.40;99.90;;;;;;5157588;27;20452;-62
2022/01/30 06:20:53;;;;;;;1.50;0.50;;;7.40;99.90;;;;;;5156968;27;20429;-62
2022/01/30 06:23:22;;;;;;;4.18;0.60;;;7.40;99.90;;;;;;5157087;27;20452;-62
2022/01/30 06:25:49;;;;;;;0.82;0.40;;;7.30;99.90;;;;;;5157299;27;20838;-62
2022/01/30 06:28:16;;;;;;;2.90;0.60;;;7.20;99.90;;;;;;5157399;27;20451;-61
2022/01/30 06:30:43;;;;;;;2.40;0.52;;;7.20;99.90;;;;;;5157359;27;20460;-62
2022/01/30 06:33:11;;;;;;;1.30;0.50;;;7.20;99.90;;;;;;5157075;27;20869;-62
2022/01/30 06:35:38;;;;;;;1.80;0.60;;;7.20;99.90;;;;;;5157640;27;20780;-62
2022/01/30 06:38:05;;;;;;;1.30;0.50;;;7.00;99.90;;;;;;5157430;27;20769;-62
2022/01/30 06:40:33;;;;;;;2.90;0.70;;;7.00;99.90;;;;;;5157204;27;20449;-62
2022/01/30 06:43:00;;;;;;;0.65;0.50;;;6.90;99.90;;;;;;5157183;27;20416;-62
2022/01/30 06:45:27;;;;;;;2.38;0.70;;;6.90;99.90;;;;;;5157420;27;20481;-62
2022/01/30 06:47:54;;;;;;;2.00;0.50;;;6.80;99.90;;;;;;5157101;27;20416;-62
2022/01/30 06:50:23;;;;;;;2.08;0.60;;;6.90;99.90;;;;;;5156544;27;20790;-63
2022/01/30 06:52:49;;;;;;;3.10;0.60;;;6.90;99.90;;;;;;5156962;27;20451;-62
2022/01/30 06:55:17;;;;;;;0.90;0.50;;;6.80;99.90;;;;;;5156932;27;20870;-62
2022/01/30 06:57:44;;;;;;;1.33;0.60;;;6.80;99.90;;;;;;5156023;27;20412;-62
2022/01/30 07:00:12;;;;;;;1.73;0.50;;;6.80;99.90;;;;;;5155540;27;20425;-62
2022/01/30 07:02:39;;;;;;;1.42;0.40;;;6.70;99.90;;;;;;5156113;27;20468;-62
2022/01/30 07:05:07;;;;;;;3.10;0.60;;;6.70;99.90;;;;;;5155644;27;20789;-62
2022/01/30 07:07:35;;;;;;;1.30;0.60;;;6.70;99.90;;;;;;5156281;27;20772;-62
2022/01/30 07:10:02;;;;;;;2.83;0.50;;;6.70;99.90;;;;;;5156509;27;20449;-62
2022/01/30 07:12:29;;;;;;;1.60;0.50;;;6.70;99.90;;;;;;5155695;27;20433;-62
2022/01/30 07:14:56;;;;;;;2.08;0.50;;;6.70;99.90;;;;;;5156686;27;20453;-61
2022/01/30 07:17:23;;;;;;;1.13;0.50;;;6.60;99.90;;;;;;5156119;27;20413;-62
2022/01/30 07:19:50;;;;;;;3.05;0.60;;;6.60;99.90;;;;;;5156868;27;20813;-62
2022/01/30 07:22:17;;;;;;;3.60;0.60;;;6.50;99.90;;;;;;5156680;27;20511;-62
2022/01/30 07:24:45;;;;;;;1.23;0.50;;;6.50;99.90;;;;;;5156110;27;20874;-61
2022/01/30 07:27:12;;;;;;;2.80;0.60;;;6.40;99.90;;;;;;5155203;27;20968;-62
2022/01/30 07:29:39;;;;;;;3.30;0.70;;;6.40;99.90;;;;;;5156139;27;20793;-62
2022/01/30 07:32:07;;;;;;;2.35;0.60;;;6.50;99.90;;;;;;5156986;27;20440;-62
2022/01/30 07:34:33;;;;;;;2.60;0.70;;;6.40;99.90;;;;;;5156759;27;20437;-61
2022/01/30 07:37:00;;;;;;;2.28;0.60;;;6.50;99.90;;;;;;5156650;27;20793;-62
2022/01/30 07:39:30;;;;;;;4.10;0.60;;;6.70;99.90;;;;;;5155692;27;20428;-62
2022/01/30 07:41:58;;;;;;;2.10;0.60;;;6.80;99.90;;;;;;5155349;27;20682;-62
2022/01/30 07:44:25;;;;;;;2.70;0.60;;;6.70;99.90;;;;;;5154579;27;20801;-62
2022/01/30 07:46:52;;;;;;;2.50;0.70;;;6.70;99.90;;;;;;5154399;27;20440;-62
2022/01/30 07:49:19;;;;;;;3.83;0.70;;;6.70;99.90;;;;;;5154208;27;20898;-62
2022/01/30 07:51:46;;;;;;;2.90;0.60;;;6.70;99.90;;;;;;5154749;27;20465;-62
2022/01/30 07:54:13;;;;;;;1.95;0.70;;;6.70;99.90;;;;;;5155354;27;20416;-62
2022/01/30 07:56:40;;;;;;;3.10;0.60;;;6.70;99.90;;;;;;5154953;27;20891;-62
2022/01/30 07:59:08;;;;;;;3.40;0.60;;;6.70;99.90;;;;;;5154823;27;20417;-62
2022/01/30 08:01:35;;;;;;;2.78;0.70;;;6.70;99.90;;;;;;5154276;27;20420;-62
2022/01/30 08:04:03;;;;;;;3.72;0.60;;;6.60;99.90;;;;;;5154847;27;20415;-61
2022/01/30 08:06:30;;;;;;;4.10;0.70;;;6.60;99.90;;;;;;5155233;27;20708;-61
2022/01/30 08:08:57;;;;;;;1.25;0.60;;;6.50;99.90;;;;;;5155255;27;20463;-61
2022/01/30 08:11:24;;;;;;;1.30;0.60;;;6.50;99.90;;;;;;5155082;27;20795;-62
2022/01/30 08:13:51;;;;;;;2.30;0.60;;;6.70;99.90;;;;;;5155196;27;20505;-62
2022/01/30 08:16:20;;;;;;;1.00;0.60;;;6.70;99.90;;;;;;5154077;27;20421;-62
2022/01/30 08:18:47;;;;;;;2.87;0.60;;;6.60;99.90;;;;;;5154345;27;20516;-61
2022/01/30 08:21:14;;;;;;;3.33;0.60;;;6.50;99.90;;;;;;5154556;27;20477;-62
2022/01/30 08:23:41;;;;;;;1.60;0.60;;;6.50;99.90;;;;;;5156245;27;20827;-62
2022/01/30 08:26:08;;;;;;;3.42;0.80;;;6.60;99.90;;;;;;5160249;27;20448;-63
2022/01/30 08:28:35;;;;;;;1.83;0.60;;;6.50;99.90;;;;;;5160189;27;20453;-63
2022/01/30 08:31:02;;;;;;;1.95;0.50;;;6.60;99.90;;;;;;5159608;27;20788;-62
2022/01/30 08:33:30;;;;;;;2.20;0.50;;;6.70;99.90;;;;;;5159651;27;20428;-63
2022/01/30 08:35:57;;;;;;;3.10;0.60;;;6.70;99.90;;;;;;5159775;27;20457;-62
2022/01/30 08:38:24;;;;;;;3.20;0.50;;;6.70;99.90;;;;;;5160252;27;20448;-63
2022/01/30 08:40:51;;;;;;;3.35;0.80;;;6.80;99.90;;;;;;5159980;27;20420;-64
2022/01/30 08:43:21;;;;;;;3.70;0.40;;;6.90;99.90;;;;;;5158950;27;20861;-62
2022/01/30 08:45:48;;;;;;;1.42;0.50;;;7.00;99.90;;;;;;5159384;27;20796;-63
2022/01/30 08:48:15;;;;;;;4.70;0.60;;;6.90;99.90;;;;;;5159635;27;20828;-64
2022/01/30 08:50:44;;;;;;;1.30;0.50;;;6.80;99.90;;;;;;5158642;27;20456;-63
2022/01/30 08:53:11;;;;;;;2.70;0.50;;;6.80;99.90;;;;;;5156600;27;20476;-63
2022/01/30 08:55:38;;;;;;;2.10;0.50;;;6.70;99.90;;;;;;5143628;27;20535;-63
2022/01/30 08:58:07;;;;;;;2.65;0.60;;;6.70;99.90;;;;;;5138557;27;20444;-63
2022/01/30 09:00:35;;;;;;;2.58;0.60;;;6.70;99.90;;;;;;5142031;27;20460;-63
2022/01/30 09:03:03;;;;;;;2.73;0.60;;;6.60;99.90;;;;;;5158385;27;20723;-63
2022/01/30 09:05:30;;;;;;;2.10;0.60;;;6.70;99.90;;;;;;5158554;27;20540;-64
2022/01/30 09:07:59;;;;;;;2.83;0.60;;;6.60;99.90;;;;;;5158650;27;20412;-63
2022/01/30 09:10:26;;;;;;;2.30;0.60;;;6.70;99.90;;;;;;5158232;27;20460;-62
2022/01/30 09:12:53;;;;;;;3.90;0.80;;;6.80;99.90;;;;;;5157562;27;20432;-63
2022/01/30 09:15:20;;;;;;;2.60;0.60;;;6.80;99.90;;;;;;5156754;27;20807;-63
2022/01/30 09:17:47;;;;;;;2.23;0.67;;;6.70;99.90;;;;;;5156803;27;20465;-63
2022/01/30 09:20:14;;;;;;;2.63;0.97;;;6.70;99.90;;;;;;5157377;27;20458;-65
2022/01/30 09:22:41;;;;;;;5.20;0.60;;;6.60;99.90;;;;;;5158293;27;20478;-63
2022/01/30 09:25:11;;;;;;;3.00;0.60;;;6.70;99.90;;;;;;5156858;27;20464;-63
2022/01/30 09:27:38;;;;;;;1.80;0.70;;;6.70;99.90;;;;;;5156760;27;20469;-63
2022/01/30 09:30:07;;;;;;;1.67;0.63;;;6.70;99.90;;;;;;5156708;27;20460;-65
2022/01/30 09:32:34;;;;;;;2.30;0.70;;;6.70;99.90;;;;;;5157147;27;20400;-64
2022/01/30 09:35:01;;;;;;;4.90;0.80;;;6.90;99.90;;;;;;5156266;27;20420;-64
2022/01/30 09:37:28;;;;;;;1.77;0.60;;;6.90;99.90;;;;;;5155978;27;20444;-63
2022/01/30 09:39:55;;;;;;;3.80;0.70;;;6.90;99.90;;;;;;5155641;27;20544;-65
2022/01/30 09:42:25;;;;;;;1.67;0.70;;;6.80;99.90;;;;;;5155237;27;20766;-64
2022/01/30 09:44:52;;;;;;;1.90;0.87;;;6.90;99.90;;;;;;5156154;27;20904;-65
2022/01/30 09:47:20;;;;;;;2.40;0.70;;;6.90;99.90;;;;;;5155143;27;20413;-63
2022/01/30 09:49:48;;;;;;;2.50;0.70;;;7.10;99.90;;;;;;5154859;27;20464;-64
2022/01/30 09:52:16;;;;;;;1.90;0.70;;;7.20;99.90;;;;;;5156353;27;20724;-66
2022/01/30 09:54:43;;;;;;;1.93;0.70;;;7.20;99.90;;;;;;5156142;27;20417;-64
2022/01/30 09:57:10;;;;;;;3.80;0.80;;;7.10;99.90;;;;;;5156470;27;20893;-64
2022/01/30 09:59:38;;;;;;;1.60;0.60;;;7.10;99.90;;;;;;5157036;27;20885;-65
2022/01/30 10:02:06;;;;;;;2.70;0.60;;;7.10;99.90;;;;;;5155767;27;20901;-64
2022/01/30 10:04:36;;;;;;;2.20;0.70;;;7.30;99.90;;;;;;5137992;27;20522;-64
2022/01/30 10:07:10;;;;;;;1.75;0.50;;;7.10;99.90;;;;;;5135187;27;20497;-64
2022/01/30 10:09:43;;;;;;;2.70;0.60;;;7.10;99.90;;;;;;5133817;27;20552;-65
2022/01/30 10:12:16;;;;;;;2.30;0.60;;;7.30;99.90;;;;;;5134666;27;20411;-64
2022/01/30 10:14:52;;;;;;;2.00;0.63;;;7.40;99.90;;;;;;5133099;27;20841;-64
2022/01/30 10:17:30;;;;;;;3.15;0.60;;;7.50;99.90;;;;;;5134479;27;20431;-65
2022/01/30 10:20:05;;;;;;;2.00;0.50;;;7.50;99.90;;;;;;5147044;27;20839;-65
2022/01/30 10:22:33;;;;;;;4.10;0.63;;;7.40;99.90;;;;;;5153546;27;20456;-64
2022/01/30 10:25:00;;;;;;;2.08;0.50;;;7.40;99.90;;;;;;5153639;27;20440;-64
2022/01/30 10:27:32;;;;;;;1.80;0.60;;;7.40;99.90;;;;;;5154920;27;20876;-62
2022/01/30 10:30:04;;;;;;;4.22;0.60;;;7.30;99.90;;;;;;5141689;27;20423;-63
2022/01/30 10:32:31;;;;;;;2.20;0.50;;;7.40;99.90;;;;;;5135411;27;20411;-65
2022/01/30 10:35:00;;;;;;;2.50;0.60;;;7.50;99.90;;;;;;5135653;27;20426;-65
2022/01/30 10:37:28;;;;;;;2.22;0.57;;;7.30;99.90;;;;;;5148994;27;20417;-64
2022/01/30 10:40:03;;;;;;;1.70;0.40;;;7.40;99.90;;;;;;5148086;27;20427;-65
2022/01/30 10:42:41;;;;;;;1.23;0.50;;;7.40;99.90;;;;;;5155079;27;20419;-65
2022/01/30 10:45:12;;;;;;;1.40;0.47;;;7.50;99.90;;;;;;5154412;27;20460;-65
2022/01/30 10:47:41;;;;;;;2.53;0.40;;;7.40;99.90;;;;;;5155676;27;20409;-65
2022/01/30 10:50:15;;;;;;;2.40;0.40;;;7.40;99.90;;;;;;5155968;27;20867;-65
2022/01/30 10:52:50;;;;;;;2.10;0.50;;;7.30;99.90;;;;;;5156330;27;20466;-64
2022/01/30 10:55:17;;;;;;;1.60;0.50;;;7.50;99.90;;;;;;5150254;27;20713;-64
2022/01/30 10:57:46;;;;;;;3.27;0.57;;;7.60;99.90;;;;;;5147707;27;20452;-63
2022/01/30 11:00:15;;;;;;;2.72;0.50;;;7.50;99.90;;;;;;5141620;27;20507;-65
2022/01/30 11:02:43;;;;;;;2.90;0.50;;;7.60;99.90;;;;;;5145413;27;20567;-65
2022/01/30 11:05:13;;;;;;;2.65;0.50;;;7.80;99.90;;;;;;5140619;27;20743;-64
2022/01/30 11:07:42;;;;;;;2.40;0.50;;;7.80;99.90;;;;;;5152908;27;20416;-64
2022/01/30 11:10:15;;;;;;;1.38;0.50;;;8.00;99.90;;;;;;5154243;27;20488;-66
2022/01/30 11:12:46;;;;;;;1.20;0.50;;;7.90;99.90;;;;;;5153331;27;20409;-65
2022/01/30 11:15:21;;;;;;;3.10;0.60;;;8.00;99.90;;;;;;5153896;27;20747;-65
2022/01/30 11:17:50;;;;;;;1.90;0.40;;;7.90;99.90;;;;;;5155777;27;20444;-66
2022/01/30 11:20:18;;;;;;;1.40;0.50;;;8.00;99.90;;;;;;5155601;27;20451;-65
2022/01/30 11:22:47;;;;;;;4.35;0.50;;;8.00;99.90;;;;;;5154363;27;20515;-65
2022/01/30 11:25:16;;;;;;;2.40;0.55;;;8.00;99.90;;;;;;5155794;27;20449;-65
2022/01/30 11:27:46;;;;;;;4.60;0.60;;;8.00;99.90;;;;;;5155512;27;20504;-65
2022/01/30 11:30:15;;;;;;;3.45;0.60;;;8.00;99.90;;;;;;5156277;27;20428;-65
2022/01/30 11:32:44;;;;;;;2.38;0.70;;;8.10;99.90;;;;;;5154388;27;20849;-64
2022/01/30 11:35:11;;;;;;;2.90;0.73;;;8.10;99.90;;;;;;5155600;27;20506;-65
2022/01/30 11:37:40;;;;;;;1.30;0.50;;;8.00;99.90;;;;;;5155745;27;20449;-64
2022/01/30 11:40:15;;;;;;;1.03;0.50;;;7.70;99.90;;;;;;5146648;27;20776;-64
2022/01/30 11:42:46;;;;;;;2.53;0.50;;;7.90;99.90;;;;;;5133518;28;20473;-64
2022/01/30 11:45:18;;;;;;;4.20;0.60;;;7.90;99.90;;;;;;5143045;27;20519;-64
2022/01/30 11:47:49;;;;;;;2.67;0.50;;;8.00;99.90;;;;;;5148231;27;20483;-63
2022/01/30 11:50:24;;;;;;;1.08;0.50;;;8.10;99.90;;;;;;5134271;27;20481;-64
2022/01/30 11:53:00;;;;;;;1.67;0.52;;;8.10;99.90;;;;;;5134899;28;20406;-64
2022/01/30 11:55:49;;;;;;;1.40;0.50;;;8.00;99.90;;;;;;5155152;27;20483;-65
2022/01/30 11:58:55;;;;;;;4.35;0.60;;;8.10;99.90;;;;;;5136022;27;20422;-65
2022/01/30 12:01:37;;;;;;;2.20;0.50;;;8.00;99.90;;;;;;5142719;27;20464;-64
2022/01/30 12:04:10;;;;;;;0.77;0.40;;;7.80;99.90;;;;;;5156815;27;20492;-64
2022/01/30 12:06:38;;;;;;;2.70;0.40;;;7.80;99.90;;;;;;5157452;27;20812;-65
2022/01/30 12:09:29;;;;;;;1.70;0.60;;;7.80;99.90;;;;;;5157799;27;20867;-66
2022/01/30 12:12:05;;;;;;;3.63;0.50;;;7.70;99.90;;;;;;5143505;27;20775;-65
2022/01/30 12:14:56;;;;;;;3.65;0.60;;;7.60;99.90;;;;;;5137676;27;20429;-65
2022/01/30 12:17:46;;;;;;;1.77;0.60;;;7.60;99.90;;;;;;5139329;27;20435;-67
2022/01/30 12:20:15;;;;;;;3.20;0.50;;;7.60;99.90;;;;;;5139832;27;20465;-62
2022/01/30 12:22:43;;;;;;;2.40;0.50;;;7.80;99.90;;;;;;5138566;27;20432;-65
2022/01/30 12:25:35;;;;;;;2.70;0.55;;;7.80;99.90;;;;;;5138512;27;20456;-66
2022/01/30 12:28:11;;;;;;;1.90;0.50;;;8.00;99.90;;;;;;5139131;27;20487;-64
2022/01/30 12:30:50;;;;;;;2.45;0.50;;;8.10;99.90;;;;;;5138804;27;20793;-65
2022/01/30 12:33:34;;;;;;;3.00;0.50;;;7.90;99.90;;;;;;5138863;27;20410;-65
2022/01/30 12:36:04;;;;;;;1.70;0.50;;;8.00;99.90;;;;;;5139106;27;20474;-65
2022/01/30 12:38:33;;;;;;;1.60;0.40;;;8.10;99.90;;;;;;5142068;27;20898;-65
2022/01/30 12:41:00;;;;;;;1.13;0.50;;;8.10;99.90;;;;;;5158137;27;20429;-66
2022/01/30 12:43:31;;;;;;;1.50;0.50;;;8.40;99.90;;;;;;5158333;27;20443;-64
2022/01/30 12:46:13;;;;;;;1.55;0.50;;;8.30;99.90;;;;;;5157154;27;20500;-67
2022/01/30 12:48:40;;;;;;;3.80;0.60;;;8.40;99.90;;;;;;5157455;27;20425;-65
2022/01/30 12:51:13;;;;;;;4.60;0.55;;;8.50;99.90;;;;;;5141473;27;20479;-65
2022/01/30 12:53:42;;;;;;;1.55;0.50;;;8.60;99.90;;;;;;5152084;27;20417;-65
2022/01/30 12:56:09;;;;;;;2.00;0.77;;;8.50;99.90;;;;;;5152236;27;20721;-65
2022/01/30 12:58:42;;;;;;;3.60;0.70;;;8.50;99.90;;;;;;5142559;27;20423;-65
2022/01/30 13:01:11;;;;;;;2.38;0.60;;;8.70;99.90;;;;;;5155317;27;20851;-65
2022/01/30 13:03:38;;;;;;;1.65;0.50;;;8.50;99.90;;;;;;5139772;27;20480;-65
2022/01/30 13:06:06;;;;;;;2.80;0.50;;;8.50;99.90;;;;;;5151830;27;20455;-65
2022/01/30 13:08:51;;;;;;;1.30;0.50;;;8.60;99.90;;;;;;5149413;27;20422;-65
2022/01/30 13:11:21;;;;;;;2.70;0.80;;;8.40;99.90;;;;;;5135683;27;20594;-63
2022/01/30 13:13:59;;;;;;;3.13;0.60;;;8.50;99.90;;;;;;5152196;27;20469;-63
2022/01/30 13:16:29;;;;;;;1.65;0.50;;;8.60;99.90;;;;;;5150265;27;20469;-64
2022/01/30 13:18:57;;;;;;;2.15;0.60;;;8.60;99.90;;;;;;5143007;27;20446;-65
2022/01/30 13:21:25;;;;;;;2.40;0.50;;;8.70;99.90;;;;;;5136386;27;20461;-63
2022/01/30 13:23:55;;;;;;;2.70;0.50;;;8.60;99.90;;;;;;5137277;27;20519;-64
2022/01/30 13:26:36;;;;;;;2.38;0.50;;;8.60;99.90;;;;;;5136752;27;20449;-64
2022/01/30 13:29:07;;;;;;;1.38;0.40;;;8.50;99.90;;;;;;5136186;27;20454;-64
2022/01/30 13:31:35;;;;;;;2.40;0.50;;;8.40;99.90;;;;;;5135279;27;20666;-64
2022/01/30 13:34:12;;;;;;;1.73;0.40;;;8.40;99.90;;;;;;5134259;27;20834;-63
2022/01/30 13:36:39;;;;;;;1.50;0.52;;;8.30;99.90;;;;;;5134051;27;20502;-65
2022/01/30 13:39:14;;;;;;;2.90;0.50;;;8.20;99.90;;;;;;5134687;27;20441;-67
2022/01/30 13:41:49;;;;;;;3.20;0.60;;;8.20;99.90;;;;;;5135338;27;20825;-64
2022/01/30 13:44:24;;;;;;;4.50;0.50;;;8.20;99.90;;;;;;5134712;27;20418;-64
2022/01/30 13:47:02;;;;;;;2.83;0.90;;;8.10;99.90;;;;;;5134629;27;20526;-64